createdAt,value
2019-02-06T00:01:08.252Z,2.90
2019-02-06T00:03:42.899Z,2.80
2019-02-06T00:06:12.431Z,2.90
2019-02-06T00:08:48.146Z,2.90
2019-02-06T00:11:19.748Z,3.00
2019-02-06T00:13:50.126Z,3.00
2019-02-06T00:16:31.762Z,3.10
2019-02-06T00:19:01.345Z,3.10
2019-02-06T00:21:33.947Z,3.10
2019-02-06T00:24:04.633Z,3.20
2019-02-06T00:26:34.168Z,3.20
2019-02-06T00:29:03.671Z,3.20
2019-02-06T00:31:34.106Z,3.30
2019-02-06T00:34:20.945Z,3.30
2019-02-06T00:36:50.404Z,3.30
2019-02-06T00:39:25.735Z,3.30
2019-02-06T00:42:00.228Z,3.30
2019-02-06T00:44:29.763Z,3.40
2019-02-06T00:46:59.264Z,3.40
2019-02-06T00:49:37.031Z,3.40
2019-02-06T00:52:07.659Z,3.40
2019-02-06T00:54:38.525Z,3.40
2019-02-06T00:57:13.841Z,3.50
2019-02-06T00:59:43.344Z,3.50
2019-02-06T01:02:12.930Z,3.50
2019-02-06T01:04:44.336Z,3.60
2019-02-06T01:07:13.893Z,3.60
2019-02-06T01:09:45.412Z,3.60
2019-02-06T01:12:20.217Z,3.60
2019-02-06T01:14:51.900Z,3.60
2019-02-06T01:17:21.410Z,3.50
2019-02-06T01:19:59.152Z,3.50
2019-02-06T01:22:28.788Z,3.50
2019-02-06T01:24:59.284Z,3.60
2019-02-06T01:27:34.803Z,3.60
2019-02-06T01:30:18.591Z,3.60
2019-02-06T01:32:50.360Z,3.60
2019-02-06T01:35:20.126Z,3.60
2019-02-06T01:37:49.689Z,3.50
2019-02-06T01:40:20.722Z,3.50
2019-02-06T01:42:50.277Z,3.50
2019-02-06T01:45:20.502Z,3.50
2019-02-06T01:47:54.034Z,3.50
2019-02-06T01:50:29.318Z,3.50
2019-02-06T01:52:58.817Z,3.40
2019-02-06T01:55:28.197Z,3.40
2019-02-06T01:58:04.479Z,3.40
2019-02-06T02:00:42.908Z,3.40
2019-02-06T02:03:12.389Z,3.40
2019-02-06T02:06:01.942Z,3.40
2019-02-06T02:08:23.307Z,3.40
2019-02-06T02:10:58.751Z,3.50
2019-02-06T02:13:30.206Z,3.50
2019-02-06T02:15:59.809Z,3.40
2019-02-06T02:18:36.217Z,3.40
2019-02-06T02:21:06.709Z,3.40
2019-02-06T02:23:36.127Z,3.40
2019-02-06T02:26:05.655Z,3.40
2019-02-06T02:28:35.171Z,3.40
2019-02-06T02:31:09.971Z,3.40
2019-02-06T02:33:40.456Z,3.50
2019-02-06T02:36:16.547Z,3.50
2019-02-06T02:38:46.282Z,3.50
2019-02-06T02:41:21.799Z,3.60
2019-02-06T02:43:54.429Z,3.60
2019-02-06T02:46:26.032Z,3.50
2019-02-06T02:49:01.922Z,3.50
2019-02-06T02:51:31.340Z,3.50
2019-02-06T02:54:02.875Z,3.50
2019-02-06T02:56:32.479Z,3.50
2019-02-06T02:59:01.991Z,3.50
2019-02-06T03:01:53.341Z,3.60
2019-02-06T03:04:45.213Z,3.50
2019-02-06T03:07:14.720Z,3.60
2019-02-06T03:09:52.321Z,3.50
2019-02-06T03:12:21.805Z,3.50
2019-02-06T03:14:51.311Z,3.50
2019-02-06T03:17:20.812Z,3.60
2019-02-06T03:19:57.105Z,3.60
2019-02-06T03:22:26.640Z,3.60
2019-02-06T03:24:56.126Z,3.60
2019-02-06T03:27:35.384Z,3.60
2019-02-06T03:30:06.321Z,3.60
2019-02-06T03:32:44.463Z,3.50
2019-02-06T03:35:16.250Z,3.50
2019-02-06T03:37:47.878Z,3.50
2019-02-06T03:40:17.651Z,3.50
2019-02-06T03:42:47.116Z,3.50
2019-02-06T03:45:19.166Z,3.50
2019-02-06T03:47:54.949Z,3.50
2019-02-06T03:50:25.451Z,3.50
2019-02-06T03:52:57.025Z,3.50
2019-02-06T03:55:28.435Z,3.50
2019-02-06T03:57:59.186Z,3.50
2019-02-06T04:00:28.777Z,3.50
2019-02-06T04:02:58.185Z,3.50
2019-02-06T04:05:27.730Z,3.50
2019-02-06T04:07:58.130Z,3.60
2019-02-06T04:10:35.865Z,3.50
2019-02-06T04:13:06.374Z,3.50
2019-02-06T04:15:35.993Z,3.60
2019-02-06T04:18:05.930Z,3.60
2019-02-06T04:20:36.683Z,3.70
2019-02-06T04:23:07.261Z,3.70
2019-02-06T04:25:37.024Z,3.70
2019-02-06T04:28:07.488Z,3.70
2019-02-06T04:30:36.919Z,3.70
2019-02-06T04:33:08.421Z,3.70
2019-02-06T04:35:39.933Z,3.70
2019-02-06T04:38:10.840Z,3.70
2019-02-06T04:40:40.343Z,3.70
2019-02-06T04:43:09.851Z,3.70
2019-02-06T04:45:39.275Z,3.80
2019-02-06T04:48:09.842Z,3.80
2019-02-06T04:50:39.354Z,3.80
2019-02-06T04:53:09.305Z,3.80
2019-02-06T04:55:39.317Z,3.80
2019-02-06T04:58:08.841Z,3.70
2019-02-06T05:00:41.606Z,3.80
2019-02-06T05:03:11.330Z,3.80
2019-02-06T05:05:42.747Z,3.80
2019-02-06T05:08:13.502Z,3.90
2019-02-06T05:10:43.972Z,3.90
2019-02-06T05:13:13.673Z,3.90
2019-02-06T05:15:45.330Z,3.90
2019-02-06T05:18:15.096Z,3.80
2019-02-06T05:20:45.532Z,3.80
2019-02-06T05:23:14.961Z,3.80
2019-02-06T05:25:44.513Z,3.80
2019-02-06T05:28:13.981Z,3.80
2019-02-06T05:30:44.466Z,3.80
2019-02-06T05:33:13.990Z,3.80
2019-02-06T05:35:44.492Z,3.70
2019-02-06T05:38:14.953Z,3.70
2019-02-06T05:40:48.447Z,3.60
2019-02-06T05:43:17.962Z,3.60
2019-02-06T05:45:47.525Z,3.70
2019-02-06T05:48:18.091Z,3.70
2019-02-06T05:50:48.858Z,3.70
2019-02-06T05:53:18.266Z,3.70
2019-02-06T05:55:52.977Z,3.70
2019-02-06T05:58:22.409Z,3.80
2019-02-06T06:00:51.973Z,3.70
2019-02-06T06:03:21.512Z,3.80
2019-02-06T06:05:51.505Z,3.80
2019-02-06T06:08:22.969Z,3.90
2019-02-06T06:10:52.859Z,3.90
2019-02-06T06:13:30.251Z,3.90
2019-02-06T06:16:02.770Z,4.00
2019-02-06T06:18:33.550Z,4.00
2019-02-06T06:21:04.003Z,4.10
2019-02-06T06:23:33.508Z,4.10
2019-02-06T06:26:03.059Z,4.10
2019-02-06T06:28:36.805Z,4.10
2019-02-06T06:31:06.342Z,4.10
2019-02-06T06:33:44.344Z,4.10
2019-02-06T06:36:15.944Z,4.10
2019-02-06T06:38:47.409Z,4.20
2019-02-06T06:41:16.918Z,4.20
2019-02-06T06:43:46.426Z,4.30
2019-02-06T06:46:24.754Z,4.30
2019-02-06T06:48:54.747Z,4.40
2019-02-06T06:51:36.241Z,4.40
2019-02-06T06:54:14.728Z,4.40
2019-02-06T06:56:44.296Z,4.50
2019-02-06T06:59:17.083Z,4.40
2019-02-06T07:01:55.005Z,4.40
2019-02-06T07:04:25.467Z,4.40
2019-02-06T07:06:56.185Z,4.40
2019-02-06T07:09:25.624Z,4.40
2019-02-06T07:12:13.287Z,4.40
2019-02-06T07:14:42.793Z,4.50
2019-02-06T07:17:18.044Z,4.40
2019-02-06T07:19:48.556Z,4.40
2019-02-06T07:22:23.944Z,4.50
2019-02-06T07:24:53.374Z,4.50
2019-02-06T07:27:22.868Z,4.60
2019-02-06T07:29:54.579Z,4.60
2019-02-06T07:32:24.112Z,4.60
2019-02-06T07:34:55.506Z,4.70
2019-02-06T07:37:27.566Z,4.70
2019-02-06T07:40:00.196Z,4.70
2019-02-06T07:42:30.615Z,4.70
2019-02-06T07:45:07.847Z,4.80
2019-02-06T07:47:37.347Z,4.80
2019-02-06T07:50:14.142Z,4.80
2019-02-06T07:52:49.781Z,4.80
2019-02-06T07:55:20.543Z,4.80
2019-02-06T07:57:50.228Z,4.80
2019-02-06T08:00:22.823Z,4.90
2019-02-06T08:02:54.693Z,4.90
2019-02-06T08:05:30.029Z,5.00
2019-02-06T08:08:00.786Z,5.00
2019-02-06T08:10:33.829Z,5.10
2019-02-06T08:13:03.917Z,5.10
2019-02-06T08:15:37.390Z,5.10
2019-02-06T08:18:08.031Z,5.10
2019-02-06T08:20:40.996Z,5.10
2019-02-06T08:23:11.473Z,5.20
2019-02-06T08:25:42.367Z,5.30
2019-02-06T08:28:12.865Z,5.40
2019-02-06T08:30:43.308Z,5.30
2019-02-06T08:33:15.131Z,5.40
2019-02-06T08:35:44.599Z,5.50
2019-02-06T08:38:27.405Z,5.50
2019-02-06T08:40:57.846Z,5.60
2019-02-06T08:43:32.582Z,5.70
2019-02-06T08:46:04.089Z,5.70
2019-02-06T08:48:33.547Z,5.70
2019-02-06T08:51:03.955Z,5.80
2019-02-06T08:53:33.401Z,5.90
2019-02-06T08:56:02.880Z,5.90
2019-02-06T08:58:32.775Z,6.00
2019-02-06T09:01:02.189Z,6.00
2019-02-06T09:03:36.732Z,6.00
2019-02-06T09:06:08.305Z,6.00
2019-02-06T09:08:37.760Z,6.10
2019-02-06T09:11:21.381Z,6.10
2019-02-06T09:13:54.943Z,6.10
2019-02-06T09:16:25.415Z,6.10
2019-02-06T09:18:54.827Z,6.10
2019-02-06T09:21:24.237Z,6.20
2019-02-06T09:23:56.130Z,6.20
2019-02-06T09:26:44.950Z,6.20
2019-02-06T09:29:15.503Z,6.20
2019-02-06T09:31:45.938Z,6.30
2019-02-06T09:34:17.897Z,6.30
2019-02-06T09:36:48.399Z,6.30
2019-02-06T09:39:18.908Z,6.40
2019-02-06T09:41:54.284Z,6.40
2019-02-06T09:44:23.677Z,6.50
2019-02-06T09:46:54.472Z,6.50
2019-02-06T09:49:27.176Z,6.60
2019-02-06T09:52:02.481Z,6.60
2019-02-06T09:54:39.721Z,6.70
2019-02-06T09:57:10.415Z,6.70
2019-02-06T09:59:39.915Z,6.90
2019-02-06T10:02:11.418Z,6.90
2019-02-06T10:04:41.836Z,6.90
2019-02-06T10:07:12.291Z,7.00
2019-02-06T10:09:41.709Z,7.10
2019-02-06T10:12:13.167Z,7.20
2019-02-06T10:14:44.681Z,7.30
2019-02-06T10:17:36.765Z,7.30
2019-02-06T10:20:10.198Z,7.40
2019-02-06T10:22:41.869Z,7.40
2019-02-06T10:25:14.542Z,7.60
2019-02-06T10:27:43.989Z,7.70
2019-02-06T10:30:21.593Z,7.80
2019-02-06T10:32:52.021Z,7.80
2019-02-06T10:35:26.331Z,7.80
2019-02-06T10:38:01.741Z,7.80
2019-02-06T10:40:31.357Z,7.80
2019-02-06T10:43:07.981Z,7.90
2019-02-06T10:45:37.897Z,8.00
2019-02-06T10:48:08.340Z,8.10
2019-02-06T10:50:43.633Z,8.10
2019-02-06T10:53:13.019Z,8.10
2019-02-06T10:55:43.514Z,8.20
2019-02-06T10:58:23.370Z,8.20
2019-02-06T11:00:58.086Z,8.40
2019-02-06T11:03:27.590Z,8.50
2019-02-06T11:05:58.022Z,8.50
2019-02-06T11:08:27.637Z,8.50
2019-02-06T11:10:57.562Z,8.50
2019-02-06T11:13:28.969Z,8.50
2019-02-06T11:15:58.546Z,8.60
2019-02-06T11:18:39.118Z,8.60
2019-02-06T11:21:10.578Z,8.40
2019-02-06T11:23:40.374Z,8.50
2019-02-06T11:26:09.892Z,8.60
2019-02-06T11:28:39.404Z,8.60
2019-02-06T11:31:10.894Z,8.60
2019-02-06T11:33:42.337Z,8.60
2019-02-06T11:36:23.613Z,8.60
2019-02-06T11:38:44.840Z,8.60
2019-02-06T11:41:14.226Z,8.50
2019-02-06T11:43:49.711Z,8.50
2019-02-06T11:46:19.245Z,8.50
2019-02-06T11:48:49.669Z,8.50
2019-02-06T11:51:19.158Z,8.50
2019-02-06T11:53:48.603Z,8.60
2019-02-06T11:56:19.091Z,8.50
2019-02-06T11:58:48.553Z,8.40
2019-02-06T12:01:27.475Z,8.40
2019-02-06T12:03:56.889Z,8.40
2019-02-06T12:06:26.895Z,8.50
2019-02-06T12:08:56.365Z,8.60
2019-02-06T12:11:27.810Z,8.60
2019-02-06T12:13:58.264Z,8.80
2019-02-06T12:16:27.780Z,8.70
2019-02-06T12:19:04.742Z,8.70
2019-02-06T12:21:36.251Z,8.80
2019-02-06T12:24:06.805Z,8.70
2019-02-06T12:26:36.313Z,8.70
2019-02-06T12:29:05.831Z,8.70
2019-02-06T12:31:35.791Z,8.70
2019-02-06T12:34:05.393Z,8.80
2019-02-06T12:36:34.863Z,9.00
2019-02-06T12:39:09.435Z,9.30
2019-02-06T12:41:38.887Z,9.40
2019-02-06T12:44:10.511Z,9.40
2019-02-06T12:46:39.867Z,9.20
2019-02-06T12:49:09.473Z,9.10
2019-02-06T12:51:40.002Z,8.90
2019-02-06T12:54:11.408Z,8.90
2019-02-06T12:56:46.835Z,8.80
2019-02-06T12:59:16.331Z,8.70
2019-02-06T13:01:46.062Z,8.70
2019-02-06T13:04:15.548Z,8.80
2019-02-06T13:06:45.082Z,8.90
2019-02-06T13:09:14.714Z,8.90
2019-02-06T13:11:48.195Z,9.00
2019-02-06T13:14:18.729Z,8.90
2019-02-06T13:16:55.357Z,8.80
2019-02-06T13:19:24.888Z,8.90
2019-02-06T13:22:20.475Z,8.90
2019-02-06T13:24:50.183Z,8.90
2019-02-06T13:27:19.601Z,8.80
2019-02-06T13:29:51.105Z,8.70
2019-02-06T13:32:20.594Z,8.70
2019-02-06T13:34:57.017Z,8.90
2019-02-06T13:37:27.947Z,9.00
2019-02-06T13:40:00.561Z,9.10
2019-02-06T13:42:31.049Z,9.40
2019-02-06T13:45:00.509Z,9.50
2019-02-06T13:47:33.169Z,9.60
2019-02-06T13:50:08.045Z,9.50
2019-02-06T13:52:37.557Z,9.50
2019-02-06T13:55:08.930Z,9.50
2019-02-06T13:57:45.577Z,9.40
2019-02-06T14:00:26.482Z,9.40
2019-02-06T14:02:55.844Z,9.30
2019-02-06T14:05:28.841Z,9.20
2019-02-06T14:08:15.812Z,9.30
2019-02-06T14:10:59.866Z,9.30
2019-02-06T14:13:21.396Z,9.30
2019-02-06T14:15:50.951Z,9.40
2019-02-06T14:18:20.418Z,9.60
2019-02-06T14:20:52.529Z,9.80
2019-02-06T14:23:31.020Z,9.90
2019-02-06T14:26:09.409Z,9.80
2019-02-06T14:29:16.321Z,9.80
2019-02-06T14:32:06.500Z,9.80
2019-02-06T14:35:11.923Z,9.70
2019-02-06T14:38:14.756Z,9.70
2019-02-06T14:41:30.879Z,9.60
2019-02-06T14:44:33.972Z,9.50
2019-02-06T14:47:30.427Z,9.50
2019-02-06T14:50:41.156Z,9.60
2019-02-06T14:53:38.363Z,9.60
2019-02-06T14:56:23.834Z,9.60
2019-02-06T14:59:16.399Z,9.60
2019-02-06T15:02:21.108Z,9.70
2019-02-06T15:05:30.377Z,9.70
2019-02-06T15:08:39.807Z,9.50
2019-02-06T15:12:02.329Z,9.40
2019-02-06T15:15:24.898Z,9.20
2019-02-06T15:18:19.232Z,9.20
2019-02-06T15:21:42.191Z,9.10
2019-02-06T15:24:49.165Z,9.00
2019-02-06T15:28:21.019Z,9.00
2019-02-06T15:31:29.665Z,9.00
2019-02-06T15:34:39.849Z,9.00
2019-02-06T15:37:46.371Z,9.10
2019-02-06T15:40:43.508Z,9.10
2019-02-06T15:43:54.956Z,9.10
2019-02-06T15:46:55.888Z,9.20
2019-02-06T15:49:46.728Z,9.10
2019-02-06T15:52:25.842Z,9.00
2019-02-06T15:55:32.978Z,8.90
2019-02-06T15:58:51.533Z,8.90
2019-02-06T16:02:10.208Z,8.80
2019-02-06T16:05:33.769Z,8.80
2019-02-06T16:08:39.202Z,8.80
2019-02-06T16:11:58.995Z,8.70
2019-02-06T16:14:49.158Z,8.60
2019-02-06T16:17:40.949Z,8.50
2019-02-06T16:20:36.742Z,8.40
2019-02-06T16:23:41.581Z,8.30
2019-02-06T16:26:43.026Z,8.20
2019-02-06T16:30:25.096Z,8.20
2019-02-06T16:33:34.061Z,8.10
2019-02-06T16:36:20.562Z,8.10
2019-02-06T16:39:16.429Z,8.10
2019-02-06T16:42:23.766Z,8.10
2019-02-06T16:45:32.090Z,8.20
2019-02-06T16:48:29.705Z,8.20
2019-02-06T16:51:25.290Z,8.20
2019-02-06T16:54:25.703Z,8.30
2019-02-06T16:57:06.943Z,8.30
2019-02-06T17:00:12.516Z,8.30
2019-02-06T17:03:23.178Z,8.40
2019-02-06T17:06:40.908Z,8.30
2019-02-06T17:09:48.608Z,8.30
2019-02-06T17:12:30.521Z,8.30
2019-02-06T17:15:40.633Z,8.30
2019-02-06T17:19:12.467Z,8.40
2019-02-06T17:22:17.680Z,8.30
2019-02-06T17:25:14.870Z,8.30
2019-02-06T17:28:15.808Z,8.30
2019-02-06T17:31:29.216Z,8.30
2019-02-06T17:34:26.842Z,8.20
2019-02-06T17:37:32.202Z,8.10
2019-02-06T17:40:43.388Z,8.10
2019-02-06T17:43:50.705Z,8.10
2019-02-06T17:46:44.225Z,8.10
2019-02-06T17:49:40.934Z,8.10
2019-02-06T17:52:46.320Z,8.10
2019-02-06T17:55:24.774Z,8.10
2019-02-06T17:58:02.320Z,8.10
2019-02-06T18:00:39.962Z,8.10
2019-02-06T18:03:11.050Z,8.10
2019-02-06T18:05:40.676Z,8.10
2019-02-06T18:08:10.269Z,8.10
2019-02-06T18:10:54.285Z,8.10
2019-02-06T18:13:30.641Z,8.10
2019-02-06T18:16:00.113Z,8.10
2019-02-06T18:18:29.645Z,8.00
2019-02-06T18:21:01.123Z,8.00
2019-02-06T18:23:31.678Z,8.00
2019-02-06T18:26:01.292Z,8.00
2019-02-06T18:28:30.842Z,7.90
2019-02-06T18:31:04.843Z,7.90
2019-02-06T18:33:34.340Z,7.90
2019-02-06T18:36:03.826Z,7.90
2019-02-06T18:38:33.287Z,7.90
2019-02-06T18:41:02.748Z,7.90
2019-02-06T18:43:35.512Z,7.90
2019-02-06T18:46:05.325Z,7.90
2019-02-06T18:48:36.177Z,7.80
2019-02-06T18:51:05.916Z,7.80
2019-02-06T18:53:37.581Z,7.80
2019-02-06T18:56:10.082Z,7.80
2019-02-06T18:58:40.064Z,7.80
2019-02-06T19:01:13.807Z,7.80
2019-02-06T19:03:45.400Z,7.80
2019-02-06T19:06:19.199Z,7.70
2019-02-06T19:08:57.790Z,7.70
2019-02-06T19:11:29.318Z,7.70
2019-02-06T19:14:01.911Z,7.70
2019-02-06T19:16:31.384Z,7.70
2019-02-06T19:19:01.131Z,7.70
2019-02-06T19:21:30.595Z,7.70
2019-02-06T19:24:02.207Z,7.60
2019-02-06T19:26:33.691Z,7.60
2019-02-06T19:29:11.066Z,7.60
2019-02-06T19:31:40.582Z,7.60
2019-02-06T19:34:15.820Z,7.60
2019-02-06T19:36:45.385Z,7.60
2019-02-06T19:39:15.149Z,7.60
2019-02-06T19:41:44.545Z,7.50
2019-02-06T19:44:20.326Z,7.50
2019-02-06T19:46:56.127Z,7.50
2019-02-06T19:49:27.568Z,7.50
2019-02-06T19:52:10.478Z,7.50
2019-02-06T19:54:39.890Z,7.50
2019-02-06T19:57:15.240Z,7.50
2019-02-06T19:59:44.908Z,7.50
2019-02-06T20:02:14.441Z,7.50
2019-02-06T20:04:46.525Z,7.50
2019-02-06T20:07:16.003Z,7.50
2019-02-06T20:09:45.611Z,7.40
2019-02-06T20:12:34.689Z,7.40
2019-02-06T20:15:04.461Z,7.40
2019-02-06T20:17:33.962Z,7.40
2019-02-06T20:20:03.526Z,7.30
2019-02-06T20:22:37.096Z,7.30
2019-02-06T20:25:07.804Z,7.30
2019-02-06T20:27:40.945Z,7.30
2019-02-06T20:30:35.508Z,7.30
2019-02-06T20:33:05.945Z,7.30
2019-02-06T20:35:37.315Z,7.30
2019-02-06T20:38:07.782Z,7.30
2019-02-06T20:40:48.369Z,7.30
2019-02-06T20:43:22.231Z,7.20
2019-02-06T20:45:58.161Z,7.20
2019-02-06T20:48:27.779Z,7.20
2019-02-06T20:50:57.275Z,7.20
2019-02-06T20:53:33.764Z,7.20
2019-02-06T20:56:03.275Z,7.20
2019-02-06T20:58:33.748Z,7.20
2019-02-06T21:01:05.226Z,7.20
2019-02-06T21:03:46.178Z,7.20
2019-02-06T21:06:15.690Z,7.20
2019-02-06T21:08:45.230Z,7.10
2019-02-06T21:11:15.635Z,7.20
2019-02-06T21:13:45.464Z,7.10
2019-02-06T21:16:15.369Z,7.10
2019-02-06T21:18:44.800Z,7.10
2019-02-06T21:21:21.056Z,7.20
2019-02-06T21:23:52.676Z,7.20
2019-02-06T21:26:22.215Z,7.20
2019-02-06T21:28:53.672Z,7.10
2019-02-06T21:31:23.136Z,7.20
2019-02-06T21:33:52.578Z,7.20
2019-02-06T21:36:22.068Z,7.20
2019-02-06T21:38:52.529Z,7.10
2019-02-06T21:41:22.048Z,7.10
2019-02-06T21:43:51.586Z,7.10
2019-02-06T21:46:21.615Z,7.10
2019-02-06T21:48:53.070Z,7.10
2019-02-06T21:51:23.480Z,7.10
2019-02-06T21:54:08.394Z,7.10
2019-02-06T21:56:47.088Z,7.10
2019-02-06T21:59:18.581Z,7.10
2019-02-06T22:01:54.123Z,7.10
2019-02-06T22:04:26.155Z,7.10
2019-02-06T22:06:55.726Z,7.10
2019-02-06T22:09:25.347Z,7.10
2019-02-06T22:12:00.329Z,7.10
2019-02-06T22:14:40.912Z,7.00
2019-02-06T22:17:10.337Z,7.00
2019-02-06T22:19:40.785Z,7.00
2019-02-06T22:22:10.386Z,7.00
2019-02-06T22:24:46.683Z,7.00
2019-02-06T22:27:17.156Z,7.00
2019-02-06T22:29:48.580Z,7.00
2019-02-06T22:32:23.957Z,7.00
2019-02-06T22:34:53.462Z,7.00
2019-02-06T22:37:23.035Z,7.00
2019-02-06T22:39:53.511Z,6.90
2019-02-06T22:42:25.039Z,6.90
2019-02-06T22:44:55.531Z,6.90
2019-02-06T22:47:27.034Z,6.90
2019-02-06T22:49:57.560Z,6.90
2019-02-06T22:52:27.163Z,6.90
2019-02-06T22:54:57.856Z,6.90
2019-02-06T22:57:27.513Z,6.90
2019-02-06T22:59:57.919Z,6.80
2019-02-06T23:02:28.468Z,6.80
2019-02-06T23:05:04.505Z,6.80
2019-02-06T23:07:40.211Z,6.80
2019-02-06T23:10:10.333Z,6.80
2019-02-06T23:12:46.280Z,6.80
2019-02-06T23:15:17.159Z,6.80
2019-02-06T23:17:47.619Z,6.80
2019-02-06T23:20:17.266Z,6.80
2019-02-06T23:22:57.908Z,6.80
2019-02-06T23:25:29.553Z,6.70
2019-02-06T23:27:59.772Z,6.80
2019-02-06T23:30:30.697Z,6.70
2019-02-06T23:33:00.232Z,6.70
2019-02-06T23:35:29.730Z,6.60
2019-02-06T23:38:10.514Z,6.60
2019-02-06T23:40:40.342Z,6.60
2019-02-06T23:43:13.121Z,6.50
2019-02-06T23:45:42.752Z,6.50
2019-02-06T23:48:13.467Z,6.50
2019-02-06T23:50:43.901Z,6.50
2019-02-06T23:53:13.419Z,6.60
2019-02-06T23:55:43.122Z,6.60
2019-02-06T23:58:20.460Z,6.60
